Nearby METAR Reports


RPLC - Angeles/Pampanga, Philippines
Distance from station: S 166km
Updated: Sat, 19-Jan-2019 12:00pm +08
Mostly cloudy
Mostly cloudy
 Wind from NE
Wind: NE 19 km/h
Temperature: 29°C
Heat Index: 31°C
Dew Point: 20°C
Humidity: 58%
Barometer: 1015 hPa
Clouds: Mostly cloudy
Visibility: 10 km
Cloud details: Partly cloudy 610 m
Mostly cloudy 9144 m
2019/01/19 04:00 RPLC 190400Z 04010KT 9999 SCT020 BKN300 29/20 Q1015 NOSIG RMK A2997
RPLI - Laoag Intl Airport, Philippines
Distance from station: N 171km
Updated: Sat, 19-Jan-2019 12:00pm +08
Partly cloudy
Partly cloudy
 Wind from N
Wind: N 13 km/h
Temperature: 28°C
Heat Index: 31°C
Dew Point: 23°C
Humidity: 74%
Barometer: 1014 hPa
Clouds: Partly cloudy
Visibility: 10 km
Cloud details: Partly cloudy 549 m
2019/01/19 04:00 RPLI 190400Z 35007KT 320V020 9999 SCT018 28/23 Q1014 NOSIG RMK A2994
 
RPLB - Olongapo/Subic, Philippines
Distance from station: S 205km
Updated: Sat, 19-Jan-2019 12:00pm +08
Mostly cloudy
Mostly cloudy
 Wind from ENE
Wind: ENE 22 km/h
Temperature: 30°C
Heat Index: 31°C
Dew Point: 18°C
Humidity: 49%
Barometer: 1014 hPa
Clouds: Mostly cloudy
Visibility: 10 km
Cloud details: Partly cloudy 610 m
Mostly cloudy 2438 m
2019/01/19 04:00 RPLB 190400Z 07012KT 040V100 9999 SCT020 BKN080 30/18 Q1014 NOSIG RMK A2994
RPLL - Ninoy Aquino Intl Airport, Philippines
Distance from station: SSE 247km
Updated: Sat, 19-Jan-2019 12:00pm +08
Partly cloudy
Partly cloudy
 Wind from E
Wind: E 19 km/h
Temperature: 31°C
Heat Index: 33°C
Dew Point: 19°C
Humidity: 49%
Barometer: 1013 hPa
Clouds: Partly cloudy
Visibility: 10 km
Cloud details: Partly cloudy 762 m
2019/01/19 04:00 RPLL 190400Z 10010KT 9999 SCT025 31/19 Q1013 NOSIG RMK A2991